Latest Weather Observations for Adele Island

IDW60801

Issued at 7:04 am WST Tuesday 23 May 2017 (issued every 30 minutes, with the page automatically refreshed every 10 minutes)

About weather observations | Map of weather stations | Latest weather observations for WA | Other Formats
Station Details ID: 200735 Name: ADELE ISLAND Lat: -15.51 Lon: 123.16 Height: 4.6 m
Data from the previous 72 hours. | See also: Recent months at Adele Island
Date/Time
WST
Temp
°C
App
Temp
°C
Dew
Point
°C
Rel
Hum
%
Delta-T
°C
Wind Press
QNH
hPa
Press
MSL
hPa
Rain since
9am
mm
Dir  Spd
km/h
Gust
km/h
Spd
kts
Gust
kts
23/07:00am - - - - - S 19 22 10 12 1013.7 1013.6 -
23/06:30am - - - - - SSE 17 17 9 9 1013.6 1013.5 -
23/06:00am - - - - - S 15 19 8 10 1013.5 1013.4 -
23/05:30am - - - - - S 17 19 9 10 1013.2 1013.1 -
23/05:00am - - - - - SSE 17 19 9 10 1013.0 1012.9 -
23/04:30am - - - - - S 17 17 9 9 1012.8 1012.7 -
23/04:00am - - - - - S 15 17 8 9 1012.7 1012.6 -
23/03:30am - - - - - S 15 17 8 9 1012.5 1012.4 -
23/03:00am - - - - - S 15 19 8 10 1012.5 1012.4 -
23/02:30am - - - - - SSW 15 19 8 10 1012.7 1012.6 -
23/02:00am - - - - - S 13 15 7 8 1012.8 1012.7 -
23/01:30am - - - - - S 17 19 9 10 1012.8 1012.7 -
23/01:00am - - - - - S 15 17 8 9 1013.0 1012.9 -
23/12:30am - - - - - S 15 19 8 10 1013.2 1013.1 -
23/12:00am - - - - - SSW 15 17 8 9 1013.4 1013.3 -
 
Date/Time
WST
Temp
°C
App
Temp
°C
Dew
Point
°C
Rel
Hum
%
Delta-T
°C
Wind Press
QNH
hPa
Press
MSL
hPa
Rain since
9am
mm
Dir  Spd
km/h
Gust
km/h
Spd
kts
Gust
kts
22/11:30pm - - - - - S 15 17 8 9 1013.7 1013.6 -
22/11:00pm - - - - - SSW 15 17 8 9 1013.8 1013.7 -
22/10:30pm - - - - - S 17 20 9 11 1013.7 1013.6 -
22/10:00pm - - - - - S 19 24 10 13 1013.8 1013.7 -
22/09:30pm - - - - - SSW 17 20 9 11 1013.8 1013.7 -
22/09:00pm - - - - - SE 17 19 9 10 1013.8 1013.7 -
22/08:30pm - - - - - SSE 17 20 9 11 1013.8 1013.7 -
22/08:00pm - - - - - SSE 15 19 8 10 1013.6 1013.5 -
22/07:30pm - - - - - SSE 15 17 8 9 1013.4 1013.3 -
22/07:00pm - - - - - SSE 17 20 9 11 1013.1 1013.0 -
22/06:30pm - - - - - S 15 17 8 9 1012.8 1012.7 -
22/06:00pm - - - - - SSE 17 19 9 10 1012.5 1012.4 -
22/05:30pm - - - - - S 15 17 8 9 1012.4 1012.3 -
22/05:00pm - - - - - S 17 20 9 11 1012.2 1012.1 -
22/04:30pm - - - - - S 19 24 10 13 1012.0 1011.9 -
22/04:00pm - - - - - S 20 26 11 14 1011.9 1011.8 -
22/03:30pm - - - - - S 22 30 12 16 1011.9 1011.8 -
22/03:00pm - - - - - S 22 26 12 14 1011.7 1011.6 -
22/02:30pm - - - - - S 20 26 11 14 1011.8 1011.7 -
22/02:00pm - - - - - SSW 22 30 12 16 1012.0 1011.9 -
22/01:30pm - - - - - S 20 26 11 14 1012.4 1012.3 -
22/01:00pm - - - - - SSE 22 30 12 16 1012.7 1012.6 -
22/12:30pm - - - - - SSE 20 28 11 15 1013.2 1013.1 -
22/12:00pm - - - - - SE 24 30 13 16 1013.5 1013.4 -
22/11:30am - - - - - SSE 20 26 11 14 1013.8 1013.7 -
22/11:00am - - - - - SSE 22 28 12 15 1014.3 1014.2 -
22/10:30am - - - - - SSE 22 28 12 15 1014.5 1014.4 -
22/10:00am - - - - - SSE 22 28 12 15 1014.7 1014.6 -
22/09:30am - - - - - SSE 20 26 11 14 1014.8 1014.7 -
22/09:00am - - - - - S 17 26 9 14 1014.8 1014.7 -
22/08:30am - - - - - SE 7 22 4 12 1014.7 1014.6 -
22/08:00am - - - - - ESE 4 11 2 6 1014.4 1014.3 -
22/07:30am - - - - - ESE 17 22 9 12 1014.3 1014.2 -
22/07:00am - - - - - SE 9 15 5 8 1014.1 1014.0 -
22/06:30am - - - - - ESE 11 13 6 7 1013.8 1013.7 -
22/06:00am - - - - - SSE 6 9 3 5 1013.5 1013.4 -
22/05:30am - - - - - ESE 15 19 8 10 1013.3 1013.2 -
22/05:00am - - - - - ESE 17 17 9 9 1013.2 1013.1 -
22/04:30am - - - - - ESE 15 19 8 10 1012.9 1012.8 -
22/04:00am - - - - - SSE 15 19 8 10 1012.7 1012.6 -
22/03:30am - - - - - S 15 17 8 9 1012.3 1012.2 -
22/03:00am - - - - - SE 15 17 8 9 1012.1 1012.0 -
22/02:30am - - - - - ESE 15 17 8 9 1012.1 1012.0 -
22/02:00am - - - - - SSE 15 17 8 9 1012.0 1011.9 -
22/01:30am - - - - - S 15 15 8 8 1011.9 1011.8 -
22/01:00am - - - - - S 13 17 7 9 1012.1 1012.0 -
22/12:30am - - - - - S 11 13 6 7 1012.2 1012.1 -
22/12:00am - - - - - S 13 15 7 8 1012.2 1012.1 -
 
Date/Time
WST
Temp
°C
App
Temp
°C
Dew
Point
°C
Rel
Hum
%
Delta-T
°C
Wind Press
QNH
hPa
Press
MSL
hPa
Rain since
9am
mm
Dir  Spd
km/h
Gust
km/h
Spd
kts
Gust
kts
21/11:30pm - - - - - SSW 15 19 8 10 1012.3 1012.2 -
21/11:00pm - - - - - SSW 13 17 7 9 1012.4 1012.3 -
21/10:30pm - - - - - SSW 13 17 7 9 1012.4 1012.3 -
21/10:00pm - - - - - SSW 15 19 8 10 1012.4 1012.3 -
21/09:30pm - - - - - SSW 13 17 7 9 1012.4 1012.3 -
21/09:00pm - - - - - SSW 17 22 9 12 1012.4 1012.3 -
21/08:30pm - - - - - SSW 15 20 8 11 1012.3 1012.2 -
21/08:00pm - - - - - SSW 13 17 7 9 1012.2 1012.1 -
21/07:30pm - - - - - SSW 13 15 7 8 1011.9 1011.8 -
21/07:00pm - - - - - SSE 9 11 5 6 1011.5 1011.4 -
21/06:30pm - - - - - S 9 11 5 6 1011.2 1011.1 -
21/06:00pm - - - - - S 11 13 6 7 1010.9 1010.8 -
21/05:30pm - - - - - WNW 9 13 5 7 1010.7 1010.6 -
21/05:00pm - - - - - NNW 7 9 4 5 1010.5 1010.4 -
21/04:30pm - - - - - NW 7 11 4 6 1010.3 1010.2 -
21/04:00pm - - - - - SW 9 11 5 6 1010.2 1010.1 -
21/03:30pm - - - - - SW 9 13 5 7 1010.1 1010.0 -
21/03:00pm - - - - - NW 9 11 5 6 1010.0 1009.9 -
21/02:30pm - - - - - WNW 11 15 6 8 1010.0 1009.9 -
21/02:00pm - - - - - NW 7 13 4 7 1010.1 1010.0 -
21/01:30pm - - - - - N 7 13 4 7 1010.1 1010.0 -
21/01:00pm - - - - - NNE 7 13 4 7 1010.4 1010.3 -
21/12:30pm - - - - - NE 9 13 5 7 1010.8 1010.7 -
21/12:00pm - - - - - NE 9 13 5 7 1011.0 1010.9 -
21/11:30am - - - - - ESE 9 13 5 7 1011.2 1011.1 -
21/11:00am - - - - - SSE 7 11 4 6 1011.4 1011.3 -
21/10:30am - - - - - SE 9 15 5 8 1011.7 1011.6 -
21/10:00am - - - - - ESE 7 11 4 6 1012.0 1011.9 -
21/09:30am - - - - - SE 7 11 4 6 1012.1 1012.0 -
21/09:00am - - - - - ESE 7 9 4 5 1012.3 1012.2 -
21/08:30am - - - - - SE 7 9 4 5 1012.4 1012.3 -
21/08:00am - - - - - ESE 7 9 4 5 1012.1 1012.0 -
21/07:30am - - - - - SSE 7 9 4 5 1011.7 1011.6 -
21/07:00am - - - - - SSE 9 13 5 7 1011.4 1011.3 -
21/06:30am - - - - - SSE 7 13 4 7 1010.9 1010.8 -
21/06:00am - - - - - SSE 9 11 5 6 1010.5 1010.4 -
21/05:30am - - - - - SSE 9 9 5 5 1010.3 1010.2 -
21/05:00am - - - - - SSE 9 9 5 5 1009.9 1009.8 -
21/04:30am - - - - - SSE 7 9 4 5 1009.7 1009.6 -
21/04:00am - - - - - SSE 7 9 4 5 1009.4 1009.3 -
21/03:30am - - - - - S 9 11 5 6 1009.2 1009.1 -
21/03:00am - - - - - S 11 13 6 7 1009.2 1009.1 -
21/02:30am - - - - - SSW 7 9 4 5 1009.1 1009.0 -
21/02:00am - - - - - CALM 0 0 0 0 1009.2 1009.1 -
21/01:30am - - - - - CALM 0 0 0 0 1009.5 1009.4 -
21/01:00am - - - - - CALM 0 0 0 0 1009.7 1009.6 -
21/12:30am - - - - - CALM 0 0 0 0 1009.8 1009.7 -
21/12:00am - - - - - CALM 0 0 0 0 1010.0 1009.9 -
 
Date/Time
WST
Temp
°C
App
Temp
°C
Dew
Point
°C
Rel
Hum
%
Delta-T
°C
Wind Press
QNH
hPa
Press
MSL
hPa
Rain since
9am
mm
Dir  Spd
km/h
Gust
km/h
Spd
kts
Gust
kts
20/11:30pm - - - - - CALM 0 0 0 0 1010.0 1009.9 -
20/11:00pm - - - - - CALM 0 0 0 0 1010.2 1010.1 -
20/10:30pm - - - - - CALM 0 0 0 0 1010.3 1010.2 -
20/10:00pm - - - - - CALM 0 0 0 0 1010.2 1010.1 -
20/09:30pm - - - - - CALM 0 0 0 0 1010.4 1010.3 -
20/09:00pm - - - - - CALM 0 4 0 2 1010.6 1010.5 -
20/08:30pm - - - - - CALM 0 0 0 0 1010.9 1010.8 -
20/08:00pm - - - - - CALM 0 6 0 3 1011.0 1010.9 -
20/07:30pm - - - - - CALM 0 0 0 0 1010.9 1010.8 -
20/07:00pm - - - - - CALM 0 0 0 0 1010.8 1010.7 -
20/06:30pm - - - - - CALM 0 0 0 0 1010.5 1010.4 -
20/06:00pm - - - - - CALM 0 0 0 0 1010.3 1010.2 -
20/05:30pm - - - - - CALM 0 0 0 0 1010.0 1009.9 -
20/05:00pm - - - - - CALM 0 0 0 0 1009.9 1009.8 -
20/04:30pm - - - - - E 4 6 2 3 1009.7 1009.6 -
20/04:00pm - - - - - E 4 7 2 4 1009.7 1009.6 -
20/03:30pm - - - - - ENE 6 9 3 5 1009.6 1009.5 -
20/03:00pm - - - - - ENE 7 9 4 5 1009.6 1009.5 -
20/02:30pm - - - - - E 9 15 5 8 1009.7 1009.6 -
20/02:00pm - - - - - SE 11 15 6 8 1009.6 1009.5 -
20/01:30pm - - - - - E 11 15 6 8 1009.8 1009.7 -
20/01:00pm - - - - - ESE 13 17 7 9 1010.2 1010.1 -
20/12:30pm - - - - - ESE 13 17 7 9 1010.5 1010.4 -
20/12:00pm - - - - - ESE 13 17 7 9 1010.9 1010.8 -
20/11:30am - - - - - SE 13 19 7 10 1011.2 1011.1 -
20/11:00am - - - - - SE 13 20 7 11 1011.6 1011.5 -
20/10:30am - - - - - E 15 19 8 10 1011.8 1011.7 -
20/10:00am - - - - - ESE 11 19 6 10 1012.1 1012.0 -
20/09:30am - - - - - E 6 11 3 6 1012.4 1012.3 -
20/09:00am - - - - - ESE 11 19 6 10 1012.4 1012.3 -
20/08:30am - - - - - SE 17 20 9 11 1012.4 1012.3 -
20/08:00am - - - - - SSE 17 20 9 11 1012.1 1012.0 -
20/07:30am - - - - - SSE 17 20 9 11 1011.9 1011.8 -

Other Formats:

Comma delimited format used in spreadsheet applications
http://www.bom.gov.au/fwo/IDW60801/IDW60801.94210.axf

JavaScript Object Notation format (JSON) in row-major order
http://www.bom.gov.au/fwo/IDW60801/IDW60801.94210.json